createdAt,value
2019-05-01T00:02:49.448Z,14.57
2019-05-01T00:05:27.534Z,14.43
2019-05-01T00:07:58.813Z,14.33
2019-05-01T00:10:28.310Z,13.80
2019-05-01T00:12:58.039Z,14.30
2019-05-01T00:15:31.633Z,14.20
2019-05-01T00:18:30.594Z,14.37
2019-05-01T00:20:59.968Z,12.97
2019-05-01T00:23:29.285Z,13.43
2019-05-01T00:25:58.423Z,14.63
2019-05-01T00:28:27.526Z,14.83
2019-05-01T00:30:56.649Z,13.47
2019-05-01T00:33:25.779Z,14.73
2019-05-01T00:35:55.062Z,13.53
2019-05-01T00:38:24.182Z,14.70
2019-05-01T00:40:53.277Z,14.07
2019-05-01T00:43:22.466Z,14.97
2019-05-01T00:45:51.549Z,14.37
2019-05-01T00:48:20.699Z,14.67
2019-05-01T00:50:49.779Z,13.63
2019-05-01T00:53:18.874Z,13.47
2019-05-01T00:56:09.941Z,13.27
2019-05-01T00:58:52.945Z,13.93
2019-05-01T01:01:44.213Z,16.07
2019-05-01T01:04:15.796Z,13.77
2019-05-01T01:06:44.909Z,13.30
2019-05-01T01:09:14.332Z,13.83
2019-05-01T01:11:43.505Z,13.20
2019-05-01T01:14:12.742Z,12.40
2019-05-01T01:16:41.939Z,13.60
2019-05-01T01:19:11.074Z,14.00
2019-05-01T01:21:40.219Z,14.33
2019-05-01T01:24:09.419Z,13.13
2019-05-01T01:26:38.567Z,14.43
2019-05-01T01:29:07.765Z,13.00
2019-05-01T01:31:36.877Z,15.63
2019-05-01T01:34:06.096Z,14.20
2019-05-01T01:36:35.221Z,13.80
2019-05-01T01:39:06.419Z,14.43
2019-05-01T01:41:35.788Z,13.60
2019-05-01T01:44:30.870Z,13.57
2019-05-01T01:47:00.448Z,13.10
2019-05-01T01:49:29.577Z,13.87
2019-05-01T01:51:58.916Z,13.77
2019-05-01T01:54:28.021Z,14.00
2019-05-01T01:56:57.381Z,13.43
2019-05-01T01:59:27.075Z,13.63
2019-05-01T02:02:03.191Z,12.40
2019-05-01T02:04:52.701Z,14.10
2019-05-01T02:07:21.892Z,14.17
2019-05-01T02:09:51.218Z,12.70
2019-05-01T02:12:20.523Z,12.73
2019-05-01T02:14:49.724Z,13.07
2019-05-01T02:17:18.852Z,13.63
2019-05-01T02:19:48.000Z,13.63
2019-05-01T02:22:17.234Z,12.87
2019-05-01T02:24:46.408Z,13.53
2019-05-01T02:27:24.057Z,13.40
2019-05-01T02:29:56.601Z,14.13
2019-05-01T02:32:28.751Z,12.87
2019-05-01T02:34:59.834Z,13.80
2019-05-01T02:37:31.952Z,13.20
2019-05-01T02:40:04.430Z,12.80
2019-05-01T02:42:35.350Z,12.50
2019-05-01T02:45:05.642Z,13.87
2019-05-01T02:47:37.605Z,13.10
2019-05-01T02:50:10.998Z,12.90
2019-05-01T02:52:42.921Z,13.00
2019-05-01T02:55:25.665Z,12.57
2019-05-01T02:57:55.589Z,12.73
2019-05-01T03:00:25.653Z,12.83
2019-05-01T03:02:55.507Z,13.53
2019-05-01T03:05:24.742Z,13.23
2019-05-01T03:07:53.973Z,12.87
2019-05-01T03:10:23.437Z,12.47
2019-05-01T03:12:53.961Z,13.03
2019-05-01T03:15:24.205Z,12.80
2019-05-01T03:18:23.229Z,13.00
2019-05-01T03:21:00.816Z,14.67
2019-05-01T03:23:42.564Z,12.83
2019-05-01T03:26:12.023Z,13.27
2019-05-01T03:28:41.424Z,13.47
2019-05-01T03:31:10.711Z,12.90
2019-05-01T03:33:40.022Z,13.03
2019-05-01T03:36:09.154Z,12.93
2019-05-01T03:38:38.660Z,13.17
2019-05-01T03:41:07.753Z,13.30
2019-05-01T03:43:37.129Z,14.83
2019-05-01T03:46:06.801Z,15.10
2019-05-01T03:48:35.934Z,14.90
2019-05-01T03:51:05.130Z,12.67
2019-05-01T03:53:35.252Z,13.17
2019-05-01T03:56:04.371Z,13.40
2019-05-01T03:58:34.270Z,12.63
2019-05-01T04:01:16.609Z,12.10
2019-05-01T04:03:55.869Z,12.93
2019-05-01T04:06:27.090Z,12.33
2019-05-01T04:08:56.327Z,11.70
2019-05-01T04:11:25.525Z,12.43
2019-05-01T04:13:54.732Z,12.37
2019-05-01T04:16:24.273Z,11.60
2019-05-01T04:18:53.677Z,12.07
2019-05-01T04:21:25.450Z,11.23
2019-05-01T04:23:54.653Z,11.47
2019-05-01T04:26:23.875Z,12.57
2019-05-01T04:29:09.287Z,13.20
2019-05-01T04:31:43.124Z,12.43
2019-05-01T04:34:37.501Z,12.80
2019-05-01T04:37:08.923Z,11.57
2019-05-01T04:39:38.305Z,12.30
2019-05-01T04:42:07.416Z,12.80
2019-05-01T04:44:38.162Z,11.70
2019-05-01T04:47:07.300Z,12.20
2019-05-01T04:49:36.474Z,12.80
2019-05-01T04:52:05.787Z,12.40
2019-05-01T04:54:34.964Z,12.33
2019-05-01T04:57:04.281Z,10.97
2019-05-01T04:59:34.254Z,12.20
2019-05-01T05:02:05.331Z,11.33
2019-05-01T05:04:34.760Z,12.17
2019-05-01T05:07:03.903Z,11.40
2019-05-01T05:09:46.905Z,11.47
2019-05-01T05:12:29.155Z,10.77
2019-05-01T05:15:03.033Z,10.57
2019-05-01T05:17:32.473Z,12.27
2019-05-01T05:20:01.591Z,11.20
2019-05-01T05:22:31.332Z,10.13
2019-05-01T05:25:00.513Z,12.00
2019-05-01T05:27:30.148Z,10.80
2019-05-01T05:29:59.665Z,11.07
2019-05-01T05:32:30.117Z,10.20
2019-05-01T05:35:00.629Z,9.73
2019-05-01T05:37:36.223Z,10.03
2019-05-01T05:40:05.673Z,9.20
2019-05-01T05:42:35.026Z,10.00
2019-05-01T05:45:04.549Z,9.77
2019-05-01T05:47:33.668Z,9.40
2019-05-01T05:50:03.352Z,9.40
2019-05-01T05:52:52.013Z,9.63
2019-05-01T05:55:34.300Z,9.50
2019-05-01T05:58:16.707Z,10.37
2019-05-01T06:01:16.933Z,9.77
2019-05-01T06:04:07.102Z,10.43
2019-05-01T06:06:56.086Z,10.10
2019-05-01T06:09:35.877Z,10.23
2019-05-01T06:12:12.232Z,10.17
2019-05-01T06:14:56.248Z,11.53
2019-05-01T06:17:50.337Z,10.00
2019-05-01T06:20:31.110Z,10.10
2019-05-01T06:23:20.602Z,10.67
2019-05-01T06:25:49.465Z,10.53
2019-05-01T06:28:19.837Z,10.53
2019-05-01T06:30:50.131Z,9.70
2019-05-01T06:33:19.238Z,10.13
2019-05-01T06:35:48.348Z,10.93
2019-05-01T06:38:17.958Z,10.27
2019-05-01T06:40:53.080Z,10.23
2019-05-01T06:43:36.650Z,10.73
2019-05-01T06:46:37.118Z,10.50
2019-05-01T06:49:32.514Z,12.27
2019-05-01T06:52:03.398Z,11.77
2019-05-01T06:54:34.890Z,11.77
2019-05-01T06:57:05.209Z,11.87
2019-05-01T06:59:37.169Z,11.63
2019-05-01T07:02:08.889Z,11.37
2019-05-01T07:04:39.695Z,12.27
2019-05-01T07:07:24.045Z,12.30
2019-05-01T07:09:44.194Z,12.70
2019-05-01T07:12:15.565Z,11.67
2019-05-01T07:14:47.151Z,11.27
2019-05-01T07:17:16.997Z,11.33
2019-05-01T07:20:07.294Z,11.30
2019-05-01T07:22:37.155Z,12.97
2019-05-01T07:25:09.025Z,12.10
2019-05-01T07:27:38.451Z,10.37
2019-05-01T07:30:26.069Z,9.80
2019-05-01T07:32:55.267Z,9.67
2019-05-01T07:35:24.372Z,9.83
2019-05-01T07:37:57.678Z,10.10
2019-05-01T07:40:28.945Z,10.00
2019-05-01T07:43:00.104Z,11.13
2019-05-01T07:45:45.116Z,9.70
2019-05-01T07:48:16.711Z,10.87
2019-05-01T07:50:45.961Z,11.30
2019-05-01T07:53:17.340Z,10.30
2019-05-01T07:55:48.558Z,10.17
2019-05-01T07:58:18.406Z,10.93
2019-05-01T08:00:57.468Z,10.90
2019-05-01T08:03:27.083Z,10.47
2019-05-01T08:05:56.293Z,9.33
2019-05-01T08:08:25.716Z,10.77
2019-05-01T08:10:54.962Z,10.93
2019-05-01T08:13:24.171Z,13.63
2019-05-01T08:15:53.377Z,10.03
2019-05-01T08:18:27.862Z,9.97
2019-05-01T08:21:09.577Z,10.70
2019-05-01T08:23:42.607Z,9.40
2019-05-01T08:26:10.320Z,10.67
2019-05-01T08:29:06.898Z,10.57
2019-05-01T08:31:42.545Z,11.20
2019-05-01T08:34:13.409Z,10.67
2019-05-01T08:36:46.773Z,10.33
2019-05-01T08:39:13.952Z,10.65
2019-05-01T08:41:43.409Z,9.73
2019-05-01T08:44:12.708Z,8.37
2019-05-01T08:47:06.929Z,9.90
2019-05-01T08:49:50.730Z,9.90
2019-05-01T08:52:20.185Z,9.57
2019-05-01T08:54:49.358Z,10.10
2019-05-01T08:57:18.517Z,10.60
2019-05-01T08:59:47.752Z,11.27
2019-05-01T09:02:17.161Z,10.73
2019-05-01T09:04:46.353Z,9.23
2019-05-01T09:07:19.106Z,9.27
2019-05-01T09:09:47.413Z,10.10
2019-05-01T09:12:16.893Z,8.87
2019-05-01T09:14:46.126Z,10.13
2019-05-01T09:17:15.374Z,9.43
2019-05-01T09:19:44.617Z,8.80
2019-05-01T09:22:14.030Z,9.00
2019-05-01T09:24:43.936Z,8.40
2019-05-01T09:27:39.671Z,9.33
2019-05-01T09:33:59.320Z,10.23
2019-05-01T09:36:30.448Z,10.33
2019-05-01T09:39:01.596Z,10.30
2019-05-01T09:41:38.015Z,11.60
2019-05-01T09:44:05.804Z,11.37
2019-05-01T09:46:35.897Z,10.77
2019-05-01T09:49:07.757Z,9.87
2019-05-01T09:51:56.702Z,9.97
2019-05-01T09:54:37.156Z,10.30
2019-05-01T09:57:06.403Z,9.83
2019-05-01T09:59:39.285Z,9.77
2019-05-01T10:02:09.482Z,9.63
2019-05-01T10:04:48.180Z,9.90
2019-05-01T10:07:18.183Z,9.77
2019-05-01T10:09:52.153Z,10.53
2019-05-01T10:12:23.312Z,9.27
2019-05-01T10:14:55.218Z,9.80
2019-05-01T10:17:52.801Z,9.60
2019-05-01T10:20:25.177Z,8.87
2019-05-01T10:22:55.050Z,9.63
2019-05-01T10:25:38.485Z,8.67
2019-05-01T10:28:17.350Z,11.07
2019-05-01T10:31:14.154Z,9.87
2019-05-01T10:33:48.268Z,8.33
2019-05-01T10:36:37.761Z,9.20
2019-05-01T10:39:16.062Z,9.90
2019-05-01T10:41:46.415Z,9.00
2019-05-01T10:44:16.907Z,9.17
2019-05-01T10:46:46.118Z,8.80
2019-05-01T10:49:15.295Z,8.63
2019-05-01T10:51:48.878Z,9.17
2019-05-01T10:54:30.647Z,7.97
2019-05-01T10:57:05.199Z,8.97
2019-05-01T10:59:41.942Z,8.97
2019-05-01T11:02:16.961Z,9.07
2019-05-01T11:04:46.275Z,8.27
2019-05-01T11:07:15.453Z,13.10
2019-05-01T11:09:45.250Z,8.57
2019-05-01T11:12:16.788Z,8.43
2019-05-01T11:14:45.982Z,7.90
2019-05-01T11:17:15.285Z,8.33
2019-05-01T11:19:45.787Z,8.10
2019-05-01T11:22:15.112Z,8.97
2019-05-01T11:24:44.709Z,7.73
2019-05-01T11:27:14.399Z,9.03
2019-05-01T11:29:44.821Z,9.87
2019-05-01T11:32:33.515Z,9.47
2019-05-01T11:35:27.713Z,9.47
2019-05-01T11:38:06.260Z,8.73
2019-05-01T11:40:47.934Z,8.50
2019-05-01T11:43:19.898Z,8.50
2019-05-01T11:45:50.231Z,8.63
2019-05-01T11:48:19.792Z,9.30
2019-05-01T11:50:49.663Z,8.77
2019-05-01T11:53:18.917Z,9.23
2019-05-01T11:55:48.043Z,8.73
2019-05-01T11:58:17.271Z,9.13
2019-05-01T12:00:47.935Z,8.43
2019-05-01T12:03:17.314Z,8.87
2019-05-01T12:05:49.730Z,8.17
2019-05-01T12:08:19.526Z,8.67
2019-05-01T12:10:48.764Z,7.30
2019-05-01T12:13:21.520Z,8.57
2019-05-01T12:15:56.755Z,8.87
2019-05-01T12:18:26.576Z,9.17
2019-05-01T12:20:59.169Z,8.90
2019-05-01T12:23:28.678Z,8.17
2019-05-01T12:25:59.171Z,8.50
2019-05-01T12:28:29.033Z,7.00
2019-05-01T12:30:58.906Z,8.00
2019-05-01T12:33:28.445Z,7.90
2019-05-01T12:35:59.591Z,8.30
2019-05-01T12:38:30.836Z,7.67
2019-05-01T12:41:23.890Z,7.73
2019-05-01T12:44:19.480Z,7.97
2019-05-01T12:47:05.444Z,8.67
2019-05-01T12:49:35.520Z,8.60
2019-05-01T12:52:15.782Z,9.17
2019-05-01T12:54:52.085Z,8.53
2019-05-01T12:57:21.525Z,8.43
2019-05-01T12:59:50.662Z,8.63
2019-05-01T13:02:19.805Z,8.70
2019-05-01T13:04:49.407Z,8.23
2019-05-01T13:07:18.602Z,7.50
2019-05-01T13:09:50.935Z,8.37
2019-05-01T13:12:20.685Z,8.57
2019-05-01T13:14:53.098Z,7.73
2019-05-01T13:17:22.793Z,8.10
2019-05-01T13:19:54.898Z,8.13
2019-05-01T13:22:25.338Z,8.90
2019-05-01T13:24:55.227Z,8.73
2019-05-01T13:27:43.515Z,7.83
2019-05-01T13:30:32.170Z,8.27
2019-05-01T13:33:04.508Z,7.97
2019-05-01T13:35:33.847Z,6.90
2019-05-01T13:38:07.406Z,6.67
2019-05-01T13:40:39.243Z,6.87
2019-05-01T13:43:09.901Z,7.17
2019-05-01T13:45:39.436Z,6.73
2019-05-01T13:48:11.625Z,7.63
2019-05-01T13:50:41.191Z,7.70
2019-05-01T13:53:10.429Z,6.63
2019-05-01T13:55:39.642Z,6.67
2019-05-01T13:58:08.867Z,6.67
2019-05-01T14:00:38.635Z,6.87
2019-05-01T14:03:08.171Z,8.30
2019-05-01T14:05:38.650Z,7.37
2019-05-01T14:08:07.913Z,6.77
2019-05-01T14:10:37.169Z,7.27
2019-05-01T14:13:06.397Z,7.40
2019-05-01T14:15:43.075Z,7.00
2019-05-01T14:18:23.847Z,7.20
2019-05-01T14:21:13.923Z,7.00
2019-05-01T14:24:17.379Z,7.03
2019-05-01T14:26:52.282Z,6.27
2019-05-01T14:29:25.128Z,7.23
2019-05-01T14:35:36.846Z,7.27
2019-05-01T14:38:45.377Z,8.70
2019-05-01T14:48:21.565Z,7.13
2019-05-01T14:51:05.167Z,15.63
2019-05-01T15:04:49.312Z,8.87
2019-05-01T15:07:18.471Z,8.13
2019-05-01T15:09:48.641Z,12.60
2019-05-01T15:12:17.920Z,9.60
2019-05-01T15:14:56.191Z,9.07
2019-05-01T15:17:41.610Z,10.50
2019-05-01T15:20:14.163Z,9.57
2019-05-01T15:22:43.749Z,9.03
2019-05-01T15:25:27.882Z,12.50
2019-05-01T15:27:44.691Z,10.53
2019-05-01T15:30:18.094Z,9.10
2019-05-01T15:32:48.912Z,9.73
2019-05-01T15:35:21.930Z,9.77
2019-05-01T15:37:57.000Z,10.80
2019-05-01T15:40:32.286Z,10.43
2019-05-01T15:43:24.295Z,13.70
2019-05-01T15:45:55.810Z,11.50
2019-05-01T15:48:24.968Z,11.17
2019-05-01T15:50:56.001Z,10.83
2019-05-01T15:53:25.231Z,9.53
2019-05-01T15:55:54.506Z,10.23
2019-05-01T15:58:25.539Z,9.50
2019-05-01T16:00:55.988Z,11.03
2019-05-01T16:03:25.172Z,9.80
2019-05-01T16:05:58.901Z,8.77
2019-05-01T16:08:39.075Z,9.03
2019-05-01T16:11:43.741Z,10.70
2019-05-01T16:14:12.953Z,9.60
2019-05-01T16:16:42.446Z,9.00
2019-05-01T16:19:11.948Z,9.37
2019-05-01T16:21:41.210Z,8.33
2019-05-01T16:24:10.654Z,8.60
2019-05-01T16:26:43.229Z,9.63
2019-05-01T16:29:12.392Z,8.70
2019-05-01T16:31:41.655Z,8.80
2019-05-01T16:34:13.450Z,9.20
2019-05-01T16:36:42.722Z,9.50
2019-05-01T16:39:30.171Z,8.93
2019-05-01T16:41:59.811Z,10.27
2019-05-01T16:46:41.147Z,9.07
2019-05-01T16:49:10.373Z,9.40
2019-05-01T16:51:39.686Z,9.20
2019-05-01T16:54:11.988Z,10.20
2019-05-01T16:56:41.227Z,9.60
2019-05-01T16:59:10.830Z,9.50
2019-05-01T17:01:57.732Z,8.97
2019-05-01T17:04:42.410Z,10.00
2019-05-01T17:07:37.248Z,8.87
2019-05-01T17:10:12.231Z,9.13
2019-05-01T17:12:45.918Z,8.37
2019-05-01T17:15:16.958Z,10.27
2019-05-01T17:17:46.113Z,9.60
2019-05-01T17:20:15.678Z,9.53
2019-05-01T17:22:50.776Z,9.63
2019-05-01T17:25:19.014Z,9.37
2019-05-01T17:27:48.430Z,9.37
2019-05-01T17:30:20.933Z,10.17
2019-05-01T17:32:50.246Z,9.77
2019-05-01T17:35:21.329Z,9.73
2019-05-01T17:37:50.469Z,9.20
2019-05-01T17:40:19.631Z,10.10
2019-05-01T17:42:48.778Z,9.73
2019-05-01T17:45:20.437Z,9.97
2019-05-01T17:47:52.745Z,9.10
2019-05-01T17:50:21.081Z,14.07
2019-05-01T17:52:51.373Z,11.93
2019-05-01T17:55:20.587Z,12.87
2019-05-01T17:57:49.867Z,11.87
2019-05-01T18:00:43.076Z,10.83
2019-05-01T18:03:33.215Z,10.03
2019-05-01T18:06:13.812Z,10.87
2019-05-01T18:08:42.973Z,10.57
2019-05-01T18:11:14.127Z,11.37
2019-05-01T18:13:43.057Z,10.50
2019-05-01T18:16:12.351Z,10.43
2019-05-01T18:18:41.575Z,11.57
2019-05-01T18:21:12.213Z,11.67
2019-05-01T18:24:18.860Z,11.53
2019-05-01T18:27:20.852Z,11.57
2019-05-01T18:29:53.130Z,11.50
2019-05-01T18:32:41.727Z,10.77
2019-05-01T18:35:14.331Z,11.27
2019-05-01T18:37:52.639Z,10.83
2019-05-01T18:40:27.061Z,10.87
2019-05-01T18:42:56.269Z,10.57
2019-05-01T18:45:48.199Z,10.53
2019-05-01T18:48:17.713Z,9.67
2019-05-01T18:50:49.421Z,9.17
2019-05-01T18:53:17.837Z,9.10
2019-05-01T18:55:47.004Z,8.83
2019-05-01T18:58:16.701Z,8.77
2019-05-01T19:00:45.992Z,8.60
2019-05-01T19:03:15.132Z,8.33
2019-05-01T19:05:47.046Z,9.27
2019-05-01T19:08:15.339Z,8.43
2019-05-01T19:10:44.839Z,8.47
2019-05-01T19:13:14.559Z,8.70
2019-05-01T19:15:43.778Z,7.47
2019-05-01T19:18:14.699Z,7.30
2019-05-01T19:20:43.905Z,7.73
2019-05-01T19:23:13.128Z,8.53
2019-05-01T19:25:42.373Z,8.40
2019-05-01T19:28:13.603Z,8.23
2019-05-01T19:30:42.863Z,8.17
2019-05-01T19:33:12.230Z,7.80
2019-05-01T19:35:43.187Z,8.07
2019-05-01T19:38:13.643Z,7.33
2019-05-01T19:40:42.789Z,6.83
2019-05-01T19:43:12.116Z,6.90
2019-05-01T19:45:41.411Z,6.67
2019-05-01T19:48:13.630Z,7.60
2019-05-01T19:50:47.826Z,7.17
2019-05-01T19:53:14.728Z,7.10
2019-05-01T19:55:46.696Z,6.93
2019-05-01T19:58:19.497Z,6.70
2019-05-01T20:01:00.108Z,6.70
2019-05-01T20:03:30.837Z,6.83
2019-05-01T20:06:05.544Z,7.33
2019-05-01T20:08:33.570Z,7.93
2019-05-01T20:11:03.922Z,7.23
2019-05-01T20:13:36.001Z,7.10
2019-05-01T20:16:07.758Z,7.17
2019-05-01T20:18:36.926Z,7.23
2019-05-01T20:21:06.351Z,7.60
2019-05-01T20:23:35.468Z,6.63
2019-05-01T20:26:04.564Z,6.90
2019-05-01T20:28:33.697Z,6.30
2019-05-01T20:31:02.892Z,5.57
2019-05-01T20:33:33.251Z,6.47
2019-05-01T20:36:05.299Z,5.80
2019-05-01T20:38:33.870Z,6.90
2019-05-01T20:41:03.029Z,7.73
2019-05-01T20:43:33.597Z,7.63
2019-05-01T20:46:03.046Z,8.43
2019-05-01T20:48:32.210Z,7.37
2019-05-01T20:51:01.219Z,6.80
2019-05-01T20:53:30.327Z,6.80
2019-05-01T20:56:08.765Z,6.40
2019-05-01T20:58:37.905Z,6.70
2019-05-01T21:01:07.138Z,7.13
2019-05-01T21:03:37.858Z,6.60
2019-05-01T21:06:28.339Z,7.33
2019-05-01T21:09:15.897Z,7.47
2019-05-01T21:11:48.858Z,6.83
2019-05-01T21:14:22.753Z,6.50
2019-05-01T21:17:09.579Z,6.37
2019-05-01T21:19:39.429Z,5.63
2019-05-01T21:22:08.549Z,6.00
2019-05-01T21:24:37.690Z,6.27
2019-05-01T21:27:06.799Z,6.60
2019-05-01T21:29:35.880Z,6.80
2019-05-01T21:32:05.075Z,6.63
2019-05-01T21:34:34.201Z,6.70
2019-05-01T21:37:03.401Z,7.20
2019-05-01T21:39:33.452Z,6.63
2019-05-01T21:42:06.893Z,6.60
2019-05-01T21:44:33.550Z,6.67
2019-05-01T21:47:03.985Z,6.27
2019-05-01T21:49:33.393Z,6.13
2019-05-01T21:52:03.628Z,6.63
2019-05-01T21:54:33.452Z,5.97
2019-05-01T21:57:02.617Z,6.20
2019-05-01T21:59:31.640Z,7.70
2019-05-01T22:02:00.860Z,8.23
2019-05-01T22:04:31.913Z,9.27
2019-05-01T22:07:00.895Z,8.77
2019-05-01T22:09:30.294Z,7.40
2019-05-01T22:11:59.340Z,6.63
2019-05-01T22:14:40.677Z,7.57
2019-05-01T22:17:17.240Z,6.80
2019-05-01T22:19:46.470Z,7.47
2019-05-01T22:22:33.044Z,7.67
2019-05-01T22:25:17.476Z,8.07
2019-05-01T22:27:58.514Z,6.87
2019-05-01T22:30:32.626Z,7.60
2019-05-01T22:33:01.766Z,7.07
2019-05-01T22:35:33.632Z,8.27
2019-05-01T22:38:02.908Z,7.17
2019-05-01T22:40:49.873Z,7.17
2019-05-01T22:43:19.036Z,7.70
2019-05-01T22:45:48.581Z,7.30
2019-05-01T22:48:17.693Z,7.67
2019-05-01T22:50:47.874Z,6.53
2019-05-01T22:53:17.001Z,6.57
2019-05-01T22:55:46.033Z,6.60
2019-05-01T22:58:15.046Z,6.43
2019-05-01T23:00:54.796Z,7.30
2019-05-01T23:03:40.559Z,6.37
2019-05-01T23:06:07.737Z,6.77
2019-05-01T23:08:37.337Z,6.90
2019-05-01T23:11:19.283Z,7.03
2019-05-01T23:13:37.619Z,6.73
2019-05-01T23:16:07.705Z,6.30
2019-05-01T23:18:36.803Z,5.70
2019-05-01T23:21:09.849Z,6.10
2019-05-01T23:23:36.778Z,6.87
2019-05-01T23:26:05.881Z,6.20
2019-05-01T23:28:39.757Z,6.00
2019-05-01T23:31:06.057Z,6.17
2019-05-01T23:33:35.337Z,5.97
2019-05-01T23:36:06.652Z,5.50
2019-05-01T23:38:35.439Z,6.13
2019-05-01T23:41:04.633Z,5.60
2019-05-01T23:43:33.728Z,5.60
2019-05-01T23:46:02.972Z,5.27
2019-05-01T23:48:32.057Z,5.50
2019-05-01T23:51:01.258Z,5.37
2019-05-01T23:53:30.453Z,5.20
2019-05-01T23:56:00.219Z,4.70
2019-05-01T23:58:30.364Z,5.23
